Timeline UpdatesTrip UpdatesNews PostsPvt PostsTravel TipsAdmin PostsConv PostsFollowed PostsChat RequestsBlog PostsPNR Posts

Disclaimer
Search
 
 
Tue Sep 23, 2014 05:50:37 ISTHomeTrainsΣChainsAtlasPNRForumGalleryNewsFAQTripsMembersLoginFeedback
No Recent News for this Train
Other Trains in the News **new
Latest...
Short Origination from Asansol on 22/07/14
Sun Jul 20, 2014 (03:01PM)
⇐ Return Journey: Train# 53061

53062/Hatia-Barddhaman Jn Passenger (UnReserved)

Time-Table HAS CHANGED.
Sep 03 (10:47AM)
Change Departure Station:
Change Arrival Station:
Post a Train Travel TipPost a Train Travel Tip **new
Post a Comment/Question/Picture/VideoPost a Comment/Question/Picture/Video
Pantry/Catering
✕ NO Pantry Car
✕ NO Catering
Loco/Rake Reversals
GMO/Netaji SC Bose Gomoh Junction (6);
RSA - Rake Sharing
Rake/Coach Composition
Loco
BKSC WAG5A
News    PNR    Forum    Time-Table    Availability    Fare Chart    Map    Arr/Dep History    Trips    Gallery    ΣChains    X/O    Timeline    
Travel Time: 9h 10m    34 halts    Distance: 227 km    Avg Speed: 24 km/hr
Type: Passenger
Zone: ER/Eastern
Departs @ 12:00 (Avg 3m late)
Platform# 1
SMTWTFS
Bokaro Steel City/BKSC 
Arrives @ 21:10 (Avg 23m late)
Platform# ???
SMTWTFS
Barddhaman Junction/BWN 

34 halts. 43 intermediate Stations between Bokaro Steel City and Barddhaman Junction

Hide intermediate Stations  Show Old Time-Table

#CodeStation NameX/OArrivesAvgDepartsAvgHaltPFDay#KmSpeedElevZoneAddress
1HTEHatia (3)  -07:55+0--1-119.328657mSER2788599, Jharkhand
1.1AORArgora (1)  08:05-08:05-  1-114.5 28654mSERRanchi, Jharkhand
2RNCRanchi Junction (6)X  08:10+208:15+25m11-112.328632mSERDiv HQ SER, Jharkhand
3NKMNamkom (3)  08:24+408:25+51m--1-108.156618mSERRanchi, Jharkhand
4TISTatisilwai (3)  08:32+608:33+71m--1-101.647612mSERTatisilwai, Jharkhand
5GAGGangaghat (2)X  08:43+708:44+81m--1-93.849543mSERState Highway 2, Jharkhand
5.1KWKCKherwa Kocha (1)  08:55-08:55-  1-84.7 49454mSERlepsar, Jharkhand
6JONJonha (1)X  08:57+1008:58+101m11-83.348470mSERJohna, Jharkhand
7KITAKita (2)X  09:19+909:20+101m--1-66.442323mSERState Highway 2, Jharkhand
8SLFSilli (3)X  09:31+809:32+91m--1-58.728269mSERRanchi, Jharkhand
9MURIMuri Junction (3)X  09:45+609:50+75m--1-52.729254mSER06522-222444, Jharkhand
10THOTulin (3)X  10:01+610:02+81m--1-47.438267mSERDIST - PURULIYA - 723212, West Bengal
11JAAJhalida (3)  10:14+610:15+291m--1-39.914297mSERJhalida, West Bengal
11.1BKDRBegunkodar (2)XO  10:32-10:32-  1-35.7 14314mSERSH 4A, West Bengal
12KSXKotshila Junction (3)  11:04+111:05+141m11-28.250312mSERPurulia District, West Bengal
12.1DRGUDamru Ghutu (2)X  11:11-11:11-  1-22.9 50291mSERAnandnagar Rd, West Bengal
13PNWPundhag (3)  11:19+1211:20+131m11-16.668291mSERDist - Puruliya -723215, West Bengal
14RDFRadhagaon (3)X  11:29+1211:30+131m--1-6.516247mSERPundag Railway Station Rd, Jharkhand
15BKSCBokaro Steel City (3)»X  11:55+112:00+35m110.027245mSER06542-253861, Jharkhand
15.1BKSNBokaro North CabinX  12:06-12:06-  12.7 27239mSERBokaro Steel City, Jharkhand
16TKBTupkadih (3)  12:15+312:16+51m--16.726233mSERBokaro, Jharkhand
17RJBRajabera  12:27+2112:28+221m--111.421198mECRStation Rd, Jharkhand
18CRPChandrapura Junction (2)  12:40+1912:45+175m1115.657227mECR06549-242555, Jharkhand
19TELOTeloX  12:53+2212:55+282m--123.223227mECRBokaro, Jharkhand
20GMONetaji SC Bose Gomoh Junction (6)XO13:20+3114:30+3870m--133.063239mECRGomoh, Jharkhand
21MRQMatari (3)  14:39+4614:40+471m--142.445246mECRDhanbad, Jharkhand
22NPJENichitpur (2)  14:47+4714:48+471m--147.850224mECRKatras, Jharkhand
23TETTetulmari (2)  14:55+4614:56+471m--153.645225mECRTetulmari, Jharkhand
24BHNBhuli (2)X  15:03+4515:04+461m--158.99230mECRKusunda, Jharkhand
25DHNDhanbad Junction (8)X  15:40 15:30+2717:00 16:40+480 70m7162.845235mECR2319801. Div. HQ ECR, Jharkhand
26DOKMDokra Halt (2)  17:07 16:47+617:08 16:48+61m--168.125211mECRDokra, Jharkhand
27PKAPradhankhunta Junction (3)X  17:18 16:57+517:19 16:58+61m--171.941202mECRDhanbad, Jharkhand
28CAMChhota Ambana (3)X  17:27 17:07+1117:28 17:08+131m--178.068200mERDhanbad, Jharkhand
29KAOKalubathan (2)X  17:36 17:16+1417:37 17:17+151m--187.151195mERDhanbad, Jharkhand
30TNWThapar Nagar (2)X  17:42 17:22+1617:43 17:23+161m--191.340144mERDhanbad, Jharkhand
31MMUMugma (3)  17:49 17:31+1717:50 17:32+311m--196.612135mERNational Highway 2, Jharkhand
32KMMEKumardubi (2)  17:56+2617:57+261m--1101.238135mERDhanbad - 828203(06540-222077), Jharkhand
33BRRBarakar (2)  18:01+2718:02+271m--1103.849129mERDist. Bardhaman, West Bengal
34ULTKulti (3)XO  18:06+2918:07+301m--1107.012148mERdist - bardhaman, West Bengal
35STNSitarampur Junction (5)X  18:14 18:34+2418:15 18:35+271m21112.237139mERG T Rd Before Asansol, West Bengal
36BCQBarachak Junction (4)  18:20 18:41+3118:21 18:42+311m--1115.938127mERdist - bardhaman, West Bengal
37ASNAsansol Junction (7)  18:50+1319:05+1115m61121.053113mERDist - Bardhaman, West Bengal
37.1ASNEAsansol EastX  19:07-19:07-  1122.6 53110mERAsansol, West Bengal
38KPKKalipahari (4)X  19:11+1819:12+191m--1126.370106mERBardhaman distt, West Bengal
38.1NMCNimchaX  19:20-19:20-  1135.3 70106mERRaniganj, West Bengal
39RNGRaniGanj (4)  19:23+1519:24+191m--1139.15592mERRaniganj, West Bengal
39.1BQTBakhtarnagarX  19:29-19:29-  1143.6 5587mERKajora, West Bengal
40UDLAndal Junction (6)  19:32+1919:34+192m--1146.48286mERAndal, West Bengal
40.1UDLEAndal East Cabin  19:35-19:35-  1148.4 8280mERAndal, West Bengal
40.2EOCAndal East Outer CabinX  19:36-19:36-  1148.8 8280mERAndal, West Bengal
40.3POLPinjrapol  19:39-19:39-  1152.6 8280mERDurgapur, West Bengal
41OYRWaria (4)  19:40+3119:41+321m--1154.65972mERDurgapur, West Bengal
41.1DCOPDurgapur Coke Oven Plant  19:47-19:47-  1160.9 5978mERDurgapur, West Bengal
42DGRDurgapur (5)X  19:50+1719:52+182m--1163.45971mERDurgapur, West Bengal
43RBHRajbandh (4)X  20:00+3420:02+332m--1171.25872mERRajbandh Rail Station Rd, West Bengal
44PANPanagarh (4)X  20:10+2620:12+262m--1179.06870mERKaksa, West Bengal
45MNAEMankar (4)X  20:21+3220:23+312m--1189.26265mERMankur, West Bengal
46PAJParaj (4)X  20:31+3020:33+292m--1197.57852mERNational Highway 2, West Bengal
47GLIGalsi (4)X  20:38+3320:39+331m--1204.04947mERBardhaman, West Bengal
47.1INCIIshan Chandi Halt (2)X  20:47-20:47-  1210.6 4943mERDist - Bardhaman, West Bengal
48KANKhana Junction (5)  20:51+3020:52+311m--1213.95442mERDist - Bardhaman, West Bengal
49TITTalit (4)  20:58+3320:59+331m--1219.34237mERDist - Bardhaman, West Bengal
50BWNBarddhaman Junction (8)•  21:10+23---1226.9-34mERDist - Barddhaman, West Bengal
Scroll to Top
Scroll to Bottom